Time;durP1;ratioP1;P1;durP2;ratioP2;P2;SDS_P1;SDS_P2;PMS_P1;PMS_P2;Temp;Humidity;BMP_temperature;BMP_pressure;BME280_temperature;BME280_humidity;BME280_pressure;Samples;Min_cycle;Max_cycle;Signal;HPM_P1;HPM_P2
2022/08/10 00:01:50;;;;;;;7.40;4.30;;;;;;;17.96;59.45;98813.38;106314;1274;22659;-83
2022/08/10 00:04:22;;;;;;;9.10;4.30;;;;;;;18.02;59.38;98812.27;106029;1274;26494;-83
2022/08/10 00:06:53;;;;;;;5.80;4.60;;;;;;;18.05;59.30;98811.23;106119;1274;24363;-84
2022/08/10 00:09:23;;;;;;;7.60;4.50;;;;;;;17.98;59.19;98814.17;106107;1274;24204;-83
2022/08/10 00:11:51;;;;;;;5.10;3.60;;;;;;;17.94;59.29;98811.20;106166;1274;24272;-82
2022/08/10 00:14:19;;;;;;;8.90;4.00;;;;;;;17.98;59.38;98812.38;106050;1274;22685;-82
2022/08/10 00:16:47;;;;;;;9.20;4.30;;;;;;;18.00;59.26;98806.08;106042;1274;25377;-83
2022/08/10 00:19:15;;;;;;;7.10;4.30;;;;;;;18.01;59.25;98808.55;106106;1274;22544;-82
2022/08/10 00:21:46;;;;;;;6.50;3.80;;;;;;;17.97;59.05;98803.69;106145;1274;22525;-84
2022/08/10 00:24:14;;;;;;;7.80;4.10;;;;;;;17.89;59.04;98804.20;106161;1274;25287;-83
2022/08/10 00:26:43;;;;;;;12.70;4.80;;;;;;;17.82;59.05;98803.74;106110;1274;22712;-82
2022/08/10 00:29:31;;;;;;;5.70;4.30;;;;;;;17.62;59.03;98806.70;106057;1274;22758;-83
2022/08/10 00:31:59;;;;;;;7.30;4.30;;;;;;;17.53;59.44;98804.95;106139;1274;23373;-83
2022/08/10 00:34:28;;;;;;;7.50;4.60;;;;;;;17.57;59.50;98806.70;106082;1274;25522;-84
2022/08/10 00:36:57;;;;;;;6.90;4.00;;;;;;;17.59;59.47;98806.17;106094;1274;22535;-84
2022/08/10 00:39:27;;;;;;;8.20;4.30;;;;;;;17.64;59.55;98804.45;106108;1274;22630;-84
2022/08/10 00:41:56;;;;;;;11.50;4.90;;;;;;;17.58;59.30;98804.47;106121;1274;22619;-82
2022/08/10 00:44:37;;;;;;;10.80;4.30;;;;;;;17.54;59.36;98804.21;106073;1274;24295;-83
2022/08/10 00:47:06;;;;;;;5.40;4.10;;;;;;;17.54;59.91;98804.54;106098;1274;25340;-81
2022/08/10 00:49:54;;;;;;;6.50;4.10;;;;;;;17.62;60.30;98812.13;105972;1274;25213;-82
2022/08/10 00:52:24;;;;;;;10.10;4.00;;;;;;;17.68;59.95;98813.11;106098;1274;25301;-83
2022/08/10 00:54:52;;;;;;;8.20;3.90;;;;;;;17.83;60.11;98811.41;106099;1274;22684;-83
2022/08/10 00:57:21;;;;;;;7.40;4.10;;;;;;;17.96;59.89;98809.04;105989;1274;25283;-83
2022/08/10 00:59:49;;;;;;;7.40;4.00;;;;;;;18.10;59.52;98808.68;106066;1274;22670;-84
2022/08/10 01:02:30;;;;;;;8.30;4.20;;;;;;;18.16;59.36;98805.41;106106;1274;25353;-84
2022/08/10 01:05:05;;;;;;;9.90;4.40;;;;;;;18.18;59.29;98805.45;106077;1274;24296;-84
2022/08/10 01:08:07;;;;;;;24.90;4.50;;;;;;;18.16;59.14;98802.71;106104;1274;25482;-83
2022/08/10 01:10:53;;;;;;;6.50;4.00;;;;;;;18.15;59.07;98804.01;106110;1274;22553;-83
2022/08/10 01:13:56;;;;;;;9.60;4.10;;;;;;;18.13;59.15;98798.98;106075;1274;25462;-83
2022/08/10 01:16:37;;;;;;;7.70;4.20;;;;;;;18.25;59.48;98797.67;106092;1274;25379;-82
2022/08/10 01:19:17;;;;;;;6.10;4.00;;;;;;;18.33;59.12;98801.53;106200;1272;22542;-82
2022/08/10 01:22:30;;;;;;;6.90;4.00;;;;;;;18.32;58.91;98798.35;106131;1274;24405;-82
2022/08/10 01:25:32;;;;;;;7.20;3.90;;;;;;;18.38;58.90;98799.07;106078;1274;23763;-82
2022/08/10 01:28:39;;;;;;;6.90;4.00;;;;;;;18.41;58.81;98795.52;106131;1274;22878;-82
2022/08/10 01:31:13;;;;;;;8.60;3.70;;;;;;;18.39;58.41;98798.39;106120;1274;24498;-83
2022/08/10 01:33:48;;;;;;;6.40;4.00;;;;;;;18.25;58.64;98799.31;106134;1273;25345;-81
2022/08/10 01:36:34;;;;;;;7.70;3.80;;;;;;;18.20;58.60;98800.20;106065;1274;25290;-82
2022/08/10 01:39:06;;;;;;;7.70;4.00;;;;;;;18.16;58.91;98799.58;106088;1274;22572;-81
2022/08/10 01:41:43;;;;;;;5.70;3.80;;;;;;;18.18;58.62;98799.50;106132;1274;22782;-82
2022/08/10 01:44:29;;;;;;;5.20;3.70;;;;;;;18.13;58.54;98798.59;106147;1274;24207;-84
2022/08/10 01:50:01;;;;;;;7.40;3.80;;;;;;;18.00;58.80;98795.62;106056;1273;22857;-81
2022/08/10 01:52:31;;;;;;;7.80;3.50;;;;;;;18.02;58.70;98794.27;106082;1273;24253;-82
2022/08/10 01:54:59;;;;;;;4.70;3.60;;;;;;;18.02;58.74;98792.30;106135;1274;24424;-82
2022/08/10 01:57:31;;;;;;;8.50;3.70;;;;;;;18.02;58.70;98794.33;105870;1273;22690;-82
2022/08/10 02:00:01;;;;;;;6.80;3.90;;;;;;;18.02;58.99;98795.38;106056;1274;25317;-82
2022/08/10 02:02:35;;;;;;;5.00;3.70;;;;;;;18.04;58.84;98796.11;106058;1274;22775;-82
2022/08/10 02:05:05;;;;;;;5.70;3.80;;;;;;;17.95;58.51;98797.36;105956;1274;22541;-83
2022/08/10 02:07:34;;;;;;;6.60;5.00;;;;;;;17.78;59.17;98797.95;105960;1274;25346;-81
2022/08/10 02:10:10;;;;;;;7.10;4.80;;;;;;;17.57;58.67;98796.19;106065;1273;25404;-81
2022/08/10 02:12:41;;;;;;;6.50;4.80;;;;;;;17.37;59.68;98796.48;106070;1274;22857;-82
2022/08/10 02:15:15;;;;;;;6.10;4.30;;;;;;;17.35;59.97;98795.86;105924;1274;24317;-81
2022/08/10 02:17:50;;;;;;;7.80;4.70;;;;;;;17.42;59.74;98800.61;106039;1272;25448;-81
2022/08/10 02:20:36;;;;;;;10.10;4.70;;;;;;;17.28;59.79;98798.50;106037;1274;25455;-81
2022/08/10 02:23:08;;;;;;;6.70;4.10;;;;;;;17.27;60.54;98798.69;106033;1274;22713;-83
2022/08/10 02:25:38;;;;;;;5.40;4.10;;;;;;;17.29;60.69;98799.62;106066;1274;24278;-81
2022/08/10 02:28:19;;;;;;;9.50;4.00;;;;;;;17.48;60.76;98799.86;106020;1274;22559;-81
2022/08/10 02:31:03;;;;;;;5.60;3.70;;;;;;;17.62;60.26;98799.69;105998;1274;23921;-82
2022/08/10 02:33:36;;;;;;;6.20;4.00;;;;;;;17.56;60.02;98801.68;106058;1273;25403;-83
2022/08/10 02:36:08;;;;;;;5.60;3.80;;;;;;;17.42;60.26;98803.10;106059;1274;22550;-81
2022/08/10 02:38:42;;;;;;;5.90;4.10;;;;;;;17.44;60.77;98801.78;106014;1274;25439;-82
2022/08/10 02:41:36;;;;;;;5.40;4.10;;;;;;;17.37;60.97;98813.30;106037;1274;22546;-82
2022/08/10 02:44:33;;;;;;;7.30;4.10;;;;;;;17.37;61.43;98816.73;106011;1274;22655;-84
2022/08/10 02:47:40;;;;;;;8.40;4.70;;;;;;;17.36;61.03;98816.05;106224;1274;25428;-83
2022/08/10 02:50:37;;;;;;;6.00;4.10;;;;;;;17.21;61.20;98816.38;106019;1274;22616;-83
2022/08/10 02:53:15;;;;;;;5.10;3.70;;;;;;;17.23;61.83;98820.00;105970;1274;25355;-83
2022/08/10 02:56:31;;;;;;;5.70;4.30;;;;;;;17.41;62.33;98823.46;106037;1274;22574;-83
2022/08/10 02:59:10;;;;;;;5.90;4.10;;;;;;;17.49;61.06;98824.02;106019;1274;22675;-81
2022/08/10 03:01:45;;;;;;;6.00;3.70;;;;;;;17.34;60.87;98825.55;105914;1274;22601;-81
2022/08/10 03:04:22;;;;;;;6.50;3.90;;;;;;;17.21;62.30;98824.42;106023;1273;22695;-82
2022/08/10 03:07:15;;;;;;;7.50;5.90;;;;;;;17.37;62.48;98824.64;105928;1273;22774;-81
2022/08/10 03:09:46;;;;;;;6.10;4.70;;;;;;;17.47;61.95;98824.25;105901;1274;22565;-84
2022/08/10 03:12:16;;;;;;;7.40;5.20;;;;;;;17.49;61.36;98829.73;106026;1273;25401;-82
2022/08/10 03:15:05;;;;;;;6.40;4.20;;;;;;;17.40;61.64;98829.16;106045;1274;22874;-85
2022/08/10 03:17:33;;;;;;;7.70;5.20;;;;;;;17.41;61.70;98832.01;106050;1274;25425;-84
2022/08/10 03:20:02;;;;;;;10.50;5.60;;;;;;;17.48;61.79;98830.98;106052;1274;22753;-82
2022/08/10 03:22:53;;;;;;;8.70;5.40;;;;;;;17.55;61.32;98832.91;105986;1274;24418;-83
2022/08/10 03:25:22;;;;;;;10.50;5.70;;;;;;;17.60;61.41;98835.02;106060;1274;22743;-83
2022/08/10 03:27:52;;;;;;;7.90;5.50;;;;;;;17.65;61.17;98839.53;106005;1274;24361;-82
2022/08/10 03:30:21;;;;;;;10.30;6.60;;;;;;;17.68;61.12;98837.87;106020;1274;25407;-82
2022/08/10 03:33:04;;;;;;;10.40;7.20;;;;;;;17.71;60.92;98839.62;106017;1274;22703;-81
2022/08/10 03:35:33;;;;;;;10.50;6.30;;;;;;;17.71;60.97;98838.95;106027;1274;22712;-81
2022/08/10 03:38:01;;;;;;;10.10;7.10;;;;;;;17.72;60.83;98839.11;105961;1273;22856;-82
2022/08/10 03:40:33;;;;;;;9.00;7.00;;;;;;;17.68;60.92;98846.29;106011;1274;24212;-83
2022/08/10 03:43:19;;;;;;;12.30;6.50;;;;;;;17.67;60.94;98844.44;105951;1273;22540;-83
2022/08/10 03:45:50;;;;;;;10.40;7.70;;;;;;;17.69;60.89;98842.67;106013;1274;22700;-81
2022/08/10 03:48:26;;;;;;;15.40;11.10;;;;;;;17.70;60.42;98845.88;106075;1274;25474;-81
2022/08/10 03:51:16;;;;;;;16.20;8.10;;;;;;;17.41;60.74;98849.98;105949;1274;22547;-83
2022/08/10 03:53:45;;;;;;;11.90;8.00;;;;;;;17.39;60.94;98847.69;106015;1273;24409;-81
2022/08/10 03:56:38;;;;;;;11.60;8.50;;;;;;;17.40;60.86;98851.30;106022;1274;22622;-81
2022/08/10 03:59:09;;;;;;;11.50;9.10;;;;;;;17.40;60.97;98853.20;106004;1273;26590;-81
2022/08/10 04:01:37;;;;;;;10.30;7.50;;;;;;;17.46;61.08;98855.58;105990;1273;22551;-81
2022/08/10 04:04:25;;;;;;;11.30;7.60;;;;;;;17.57;61.05;98856.98;106004;1273;22696;-82
2022/08/10 04:06:56;;;;;;;12.70;9.40;;;;;;;17.63;60.82;98856.25;106046;1274;24415;-82
2022/08/10 04:09:30;;;;;;;10.70;8.40;;;;;;;17.67;60.84;98860.85;106008;1273;24133;-82
2022/08/10 04:12:18;;;;;;;10.20;8.60;;;;;;;17.74;60.55;98861.85;105990;1273;25470;-82
2022/08/10 04:14:47;;;;;;;9.60;8.20;;;;;;;17.71;60.64;98863.61;106056;1273;24243;-81
2022/08/10 04:17:21;;;;;;;10.50;8.10;;;;;;;17.70;60.68;98865.85;105978;1273;22549;-82
2022/08/10 04:20:23;;;;;;;10.50;7.70;;;;;;;17.66;60.70;98867.98;106046;1274;22746;-82
2022/08/10 04:22:55;;;;;;;10.50;8.00;;;;;;;17.71;60.87;98867.59;106011;1273;24365;-82
2022/08/10 04:25:24;;;;;;;10.60;7.80;;;;;;;17.69;60.34;98867.71;106075;1274;22860;-82
2022/08/10 04:27:53;;;;;;;15.80;10.20;;;;;;;17.56;60.73;98868.79;106079;1274;22809;-83
2022/08/10 04:30:21;;;;;;;14.60;8.50;;;;;;;17.56;60.76;98865.70;106022;1274;22528;-83
2022/08/10 04:32:53;;;;;;;9.90;8.30;;;;;;;17.55;61.00;98866.19;106029;1274;24414;-84
2022/08/10 04:35:22;;;;;;;10.70;8.00;;;;;;;17.57;60.70;98863.77;106130;1274;23211;-82
2022/08/10 04:37:52;;;;;;;13.60;8.20;;;;;;;17.59;61.08;98869.96;106064;1274;23061;-82
2022/08/10 04:40:21;;;;;;;9.70;8.70;;;;;;;17.73;61.03;98872.34;106125;1274;22753;-83
2022/08/10 04:43:03;;;;;;;11.90;8.80;;;;;;;17.84;61.09;98874.05;106113;1274;23868;-83
2022/08/10 04:45:41;;;;;;;11.00;8.10;;;;;;;17.98;60.93;98873.69;106104;1274;22625;-83
2022/08/10 04:48:21;;;;;;;9.90;7.80;;;;;;;18.09;60.71;98877.21;106139;1274;25235;-82
2022/08/10 04:51:12;;;;;;;10.80;8.20;;;;;;;18.20;60.34;98875.73;106107;1274;22619;-82
2022/08/10 04:53:50;;;;;;;13.70;9.60;;;;;;;18.24;60.08;98879.39;106154;1274;25232;-82
2022/08/10 04:56:36;;;;;;;12.80;9.40;;;;;;;18.24;60.12;98876.70;106078;1274;25241;-82
2022/08/10 04:59:06;;;;;;;9.90;8.20;;;;;;;18.25;59.95;98874.54;105922;1274;25507;-82
2022/08/10 05:01:36;;;;;;;13.60;9.80;;;;;;;18.23;59.94;98876.55;105937;1274;24205;-83
2022/08/10 05:04:23;;;;;;;22.50;8.70;;;;;;;18.16;60.14;98874.38;105906;1274;22797;-83
2022/08/10 05:07:11;;;;;;;14.60;8.60;;;;;;;18.21;60.37;98876.61;106069;1274;25222;-82
2022/08/10 05:09:47;;;;;;;10.80;7.80;;;;;;;18.30;60.46;98875.05;106095;1274;22541;-81
2022/08/10 05:12:36;;;;;;;17.40;7.70;;;;;;;18.38;60.40;98879.45;106069;1274;25347;-81
2022/08/10 05:15:08;;;;;;;12.10;6.90;;;;;;;18.45;60.50;98884.12;106139;1274;25287;-83
2022/08/10 05:17:38;;;;;;;7.60;6.40;;;;;;;18.52;60.48;98881.67;106117;1274;25337;-82
2022/08/10 05:20:09;;;;;;;8.80;6.30;;;;;;;18.64;60.61;98879.41;106182;1274;24383;-82
2022/08/10 05:22:40;;;;;;;9.00;5.60;;;;;;;18.73;60.50;98876.15;105975;1274;27885;-82
2022/08/10 05:25:11;;;;;;;8.20;6.30;;;;;;;18.77;60.25;98880.00;105971;1272;25307;-83
2022/08/10 05:27:40;;;;;;;6.60;5.10;;;;;;;18.83;60.33;98880.67;106291;1274;22528;-84
2022/08/10 05:30:12;;;;;;;12.10;5.30;;;;;;;18.90;60.47;98883.90;106386;1274;22594;-82
2022/08/10 05:32:40;;;;;;;10.50;5.80;;;;;;;18.86;60.18;98880.34;106080;1274;22695;-84
2022/08/10 05:35:28;;;;;;;8.10;5.70;;;;;;;18.84;60.33;98877.30;106140;1274;24368;-84
2022/08/10 05:38:19;;;;;;;11.00;5.00;;;;;;;18.77;60.16;98872.86;106239;1274;25297;-84
2022/08/10 05:40:48;;;;;;;6.80;5.50;;;;;;;18.63;60.32;98875.94;106178;1274;26757;-85
2022/08/10 05:43:19;;;;;;;7.40;5.30;;;;;;;18.53;60.36;98876.86;105981;1274;22550;-84
2022/08/10 05:45:49;;;;;;;7.30;4.80;;;;;;;18.43;60.60;98877.37;106263;1274;24399;-84
2022/08/10 05:48:39;;;;;;;10.70;5.30;;;;;;;18.44;60.92;98878.05;106105;1274;22753;-85
2022/08/10 05:51:28;;;;;;;6.50;4.70;;;;;;;18.45;60.95;98882.63;106101;1274;25368;-84
2022/08/10 05:53:59;;;;;;;5.50;4.30;;;;;;;18.46;60.96;98883.11;106276;1272;23934;-86
2022/08/10 05:56:38;;;;;;;7.30;4.20;;;;;;;18.52;61.16;98886.89;106225;1274;24242;-85
2022/08/10 05:59:32;;;;;;;6.50;4.20;;;;;;;18.63;61.15;98886.33;106093;1274;22628;-84
2022/08/10 06:02:27;;;;;;;13.10;6.50;;;;;;;18.82;61.05;98888.30;105914;1274;22548;-83
2022/08/10 06:05:05;;;;;;;18.30;6.80;;;;;;;18.86;60.89;98882.98;106117;1274;22549;-84
2022/08/10 06:07:45;;;;;;;8.60;5.00;;;;;;;18.98;60.93;98887.44;106128;1274;22550;-84
2022/08/10 06:10:15;;;;;;;8.20;4.70;;;;;;;19.06;60.86;98887.61;106237;1274;22715;-84
2022/08/10 06:16:01;;;;;;;11.20;5.30;;;;;;;19.28;60.61;98885.09;106070;1274;25440;-83
2022/08/10 06:18:30;;;;;;;8.40;4.50;;;;;;;19.37;60.47;98892.08;106155;1274;22557;-83
2022/08/10 06:20:59;;;;;;;5.90;4.00;;;;;;;19.43;60.49;98891.89;106162;1274;22688;-85
2022/08/10 06:23:29;;;;;;;6.40;4.50;;;;;;;19.50;60.26;98889.88;106397;1274;23504;-86
2022/08/10 06:25:58;;;;;;;8.60;3.50;;;;;;;19.53;60.26;98891.95;106166;1274;25461;-84
2022/08/10 06:28:51;;;;;;;10.50;4.80;;;;;;;19.64;60.35;98891.38;106103;1274;25379;-85
2022/08/10 06:31:38;;;;;;;6.20;4.00;;;;;;;19.73;59.98;98893.89;106108;1274;23871;-85
2022/08/10 06:34:25;;;;;;;7.20;4.00;;;;;;;19.72;59.80;98894.81;106174;1274;25225;-85
2022/08/10 06:36:57;;;;;;;5.60;4.10;;;;;;;19.79;59.92;98894.50;106148;1274;25344;-85
2022/08/10 06:39:26;;;;;;;5.60;3.80;;;;;;;19.89;59.69;98891.52;106216;1274;22665;-88
2022/08/10 06:42:14;;;;;;;5.50;4.20;;;;;;;20.09;59.63;98893.39;106111;1274;22698;-84
2022/08/10 06:44:54;;;;;;;7.70;4.20;;;;;;;20.35;59.33;98895.84;106108;1274;25590;-84
2022/08/10 06:47:29;;;;;;;6.70;3.50;;;;;;;20.39;58.93;98893.17;106087;1274;25462;-84
2022/08/10 06:50:01;;;;;;;7.10;4.00;;;;;;;20.44;58.95;98892.88;106139;1273;22676;-84
2022/08/10 06:52:34;;;;;;;5.10;3.20;;;;;;;20.67;58.62;98891.21;106154;1274;22698;-82
2022/08/10 06:55:07;;;;;;;6.60;3.40;;;;;;;20.81;58.44;98891.45;105938;1274;27847;-85
2022/08/10 06:57:37;;;;;;;6.60;3.80;;;;;;;20.88;57.71;98889.46;105981;1274;25284;-86
2022/08/10 07:00:07;;;;;;;5.80;3.80;;;;;;;20.86;57.25;98890.29;106119;1274;25391;-84
2022/08/10 07:02:43;;;;;;;7.80;4.00;;;;;;;20.82;57.23;98889.15;106143;1274;22725;-85
2022/08/10 07:05:17;;;;;;;5.70;4.00;;;;;;;20.83;57.31;98886.67;106111;1274;24412;-84
2022/08/10 07:07:49;;;;;;;5.40;3.80;;;;;;;20.92;57.37;98887.80;106112;1274;22687;-85
2022/08/10 07:10:19;;;;;;;4.50;3.40;;;;;;;20.98;57.03;98890.74;106121;1274;24266;-84
2022/08/10 07:12:51;;;;;;;5.70;3.60;;;;;;;21.00;56.62;98890.94;106136;1274;22749;-84
2022/08/10 07:15:20;;;;;;;5.90;3.50;;;;;;;21.06;55.82;98888.58;105989;1274;25407;-84
2022/08/10 07:17:51;;;;;;;6.80;2.90;;;;;;;21.00;54.17;98891.02;106121;1274;24362;-86
2022/08/10 07:20:21;;;;;;;6.50;3.20;;;;;;;20.95;53.35;98888.29;106035;1274;22600;-86
2022/08/10 07:22:52;;;;;;;3.90;2.90;;;;;;;20.90;53.62;98891.41;106255;1274;25400;-85
2022/08/10 07:25:42;;;;;;;3.90;3.00;;;;;;;21.00;54.16;98897.06;106622;1274;22553;-84
2022/08/10 07:28:12;;;;;;;4.00;2.70;;;;;;;21.14;54.13;98887.85;107161;1274;22562;-85
2022/08/10 07:30:41;;;;;;;5.60;3.50;;;;;;;21.26;53.88;98890.64;106938;1274;22556;-83
2022/08/10 07:33:12;;;;;;;5.30;3.30;;;;;;;21.36;53.39;98886.99;106606;1273;22652;-85
2022/08/10 07:35:43;;;;;;;6.10;3.30;;;;;;;21.46;52.31;98889.10;106399;1272;24285;-84
2022/08/10 07:38:17;;;;;;;5.80;3.20;;;;;;;21.44;50.88;98884.08;106431;1274;25301;-86
2022/08/10 07:40:48;;;;;;;5.90;3.50;;;;;;;21.34;51.95;98883.09;106514;1274;22561;-85
2022/08/10 07:43:20;;;;;;;6.20;3.40;;;;;;;21.48;51.89;98889.38;106476;1274;24242;-85
2022/08/10 07:45:49;;;;;;;6.60;3.30;;;;;;;21.48;51.83;98891.34;106371;1273;22703;-83
2022/08/10 07:48:33;;;;;;;6.10;3.30;;;;;;;21.51;51.76;98892.13;106365;1274;22556;-84
2022/08/10 07:51:01;;;;;;;5.30;3.60;;;;;;;21.60;51.52;98891.67;106281;1274;24204;-84
2022/08/10 07:53:33;;;;;;;7.40;3.70;;;;;;;21.66;51.15;98889.66;106374;1274;26625;-83
2022/08/10 07:56:03;;;;;;;7.60;3.40;;;;;;;21.67;51.11;98893.48;106435;1272;23418;-85
2022/08/10 07:59:01;;;;;;;4.30;3.10;;;;;;;21.69;51.29;98892.28;106404;1274;22694;-83
2022/08/10 08:01:32;;;;;;;4.90;3.20;;;;;;;21.80;51.27;98892.73;106390;1274;22877;-83
2022/08/10 08:04:03;;;;;;;7.20;3.10;;;;;;;21.91;50.42;98889.66;106369;1274;25398;-82
2022/08/10 08:06:41;;;;;;;5.00;2.90;;;;;;;21.96;49.39;98891.61;106392;1274;25300;-84
2022/08/10 08:09:10;;;;;;;6.00;3.10;;;;;;;21.98;48.52;98891.81;106566;1274;22566;-84
2022/08/10 08:11:43;;;;;;;6.00;2.80;;;;;;;22.05;49.01;98890.51;106385;1274;25299;-84
2022/08/10 08:14:15;;;;;;;5.40;3.20;;;;;;;22.05;47.63;98887.06;106525;1274;22664;-83
2022/08/10 08:16:46;;;;;;;5.00;3.00;;;;;;;21.94;47.19;98889.98;106223;1274;22547;-83
2022/08/10 08:19:17;;;;;;;4.80;2.50;;;;;;;21.94;47.29;98888.09;106326;1274;22464;-85
2022/08/10 08:22:06;;;;;;;3.90;2.70;;;;;;;21.93;46.36;98886.52;106403;1274;25292;-84
2022/08/10 08:24:55;;;;;;;4.90;2.70;;;;;;;21.78;46.37;98887.04;106376;1274;22701;-83
2022/08/10 08:27:26;;;;;;;4.30;2.60;;;;;;;21.70;46.38;98881.27;106488;1274;22567;-86
2022/08/10 08:29:54;;;;;;;3.20;2.70;;;;;;;21.77;46.26;98880.02;106566;1274;22617;-86
2022/08/10 08:32:25;;;;;;;4.30;2.70;;;;;;;21.90;46.12;98875.13;106492;1274;24415;-84
2022/08/10 08:35:00;;;;;;;2.90;2.50;;;;;;;21.97;45.92;98877.05;106392;1274;25313;-84
2022/08/10 08:37:32;;;;;;;4.90;2.50;;;;;;;22.04;46.70;98872.83;106480;1274;24368;-86
2022/08/10 08:40:26;;;;;;;3.20;2.50;;;;;;;22.19;46.64;98874.29;106902;1274;25498;-85
2022/08/10 08:43:17;;;;;;;4.30;2.60;;;;;;;22.43;46.77;98878.13;106426;1274;22789;-84
2022/08/10 08:46:05;;;;;;;6.00;2.50;;;;;;;22.61;45.59;98876.63;106419;1274;22531;-84
2022/08/10 08:48:52;;;;;;;5.20;2.30;;;;;;;22.67;46.30;98876.45;106443;1274;25367;-85
2022/08/10 08:51:38;;;;;;;5.30;2.60;;;;;;;22.85;45.86;98872.40;106372;1274;25319;-84
2022/08/10 08:54:56;;;;;;;6.50;3.00;;;;;;;23.04;45.70;98868.56;106441;1274;22749;-84
2022/08/10 08:57:37;;;;;;;3.70;2.30;;;;;;;23.23;45.73;98869.06;106437;1274;22727;-83
2022/08/10 09:00:33;;;;;;;5.40;2.80;;;;;;;23.30;43.90;98865.08;106383;1274;22855;-84
2022/08/10 09:03:01;;;;;;;6.00;2.80;;;;;;;23.19;44.82;98866.79;106506;1274;22652;-83
2022/08/10 09:06:00;;;;;;;3.40;2.80;;;;;;;23.15;45.07;98871.32;106458;1274;24792;-83
2022/08/10 09:08:36;;;;;;;6.20;2.60;;;;;;;23.09;44.70;98869.39;106406;1274;24242;-84
2022/08/10 09:11:26;;;;;;;5.90;2.80;;;;;;;23.19;44.78;98864.34;106494;1274;24355;-83
2022/08/10 09:14:04;;;;;;;6.20;2.80;;;;;;;23.39;43.98;98862.98;106457;1274;22552;-84
2022/08/10 09:16:46;;;;;;;3.60;2.60;;;;;;;23.50;44.02;98866.10;106452;1274;22615;-84
2022/08/10 09:19:26;;;;;;;6.80;2.80;;;;;;;23.62;44.48;98861.02;106504;1274;22699;-84
2022/08/10 09:22:37;;;;;;;11.40;3.40;;;;;;;23.77;44.54;98859.77;106423;1274;26677;-84
2022/08/10 09:25:19;;;;;;;3.90;2.90;;;;;;;23.87;43.80;98861.06;106389;1274;22686;-84
2022/08/10 09:27:59;;;;;;;6.10;3.20;;;;;;;23.91;42.97;98853.59;106457;1274;23923;-85
2022/08/10 09:30:34;;;;;;;5.50;2.80;;;;;;;23.91;42.51;98855.31;106404;1274;22549;-84
2022/08/10 09:33:22;;;;;;;5.30;2.80;;;;;;;23.73;42.63;98859.59;106404;1274;26644;-86
2022/08/10 09:36:16;;;;;;;6.80;3.00;;;;;;;23.64;43.18;98859.69;106386;1274;24129;-86
2022/08/10 09:39:17;;;;;;;5.60;2.90;;;;;;;23.35;42.32;98858.48;106355;1274;22725;-86
2022/08/10 09:42:24;;;;;;;5.70;2.80;;;;;;;23.28;43.02;98859.11;106368;1274;22687;-86
2022/08/10 09:45:01;;;;;;;3.40;2.80;;;;;;;23.33;42.96;98861.11;106439;1273;22501;-85
2022/08/10 09:47:51;;;;;;;3.90;3.20;;;;;;;23.32;42.58;98861.08;106251;1276;22544;-85
2022/08/10 09:50:50;;;;;;;6.90;2.80;;;;;;;23.29;42.65;98857.64;105322;1273;1436034;-84
2022/08/10 09:53:41;;;;;;;9.20;3.00;;;;;;;23.29;42.90;98853.95;106415;1273;22529;-85
2022/08/10 09:56:57;;;;;;;4.00;2.80;;;;;;;23.48;42.42;98850.98;106441;1273;22528;-84
2022/08/10 09:59:57;;;;;;;4.40;3.00;;;;;;;23.69;41.57;98841.27;106497;1273;24407;-84
2022/08/10 10:03:25;;;;;;;5.60;2.80;;;;;;;23.89;41.32;98836.97;106482;1273;22666;-84
2022/08/10 10:06:17;;;;;;;4.50;2.80;;;;;;;24.07;41.65;98836.02;106381;1274;25459;-84
2022/08/10 10:09:11;;;;;;;5.00;2.80;;;;;;;24.39;41.61;98834.08;106327;1271;24322;-85
2022/08/10 10:11:47;;;;;;;5.00;2.60;;;;;;;24.68;41.63;98831.10;106418;1273;22635;-85
2022/08/10 10:14:34;;;;;;;5.30;2.80;;;;;;;24.62;39.54;98826.13;106237;1274;22627;-85
2022/08/10 10:17:11;;;;;;;9.10;2.70;;;;;;;24.34;40.23;98827.77;106419;1273;22730;-86
2022/08/10 10:19:57;;;;;;;3.10;2.30;;;;;;;24.29;39.18;98820.05;106370;1273;22768;-86
2022/08/10 10:22:46;;;;;;;3.60;2.40;;;;;;;24.01;40.16;98825.84;106366;1273;23011;-86
2022/08/10 10:25:31;;;;;;;4.80;2.90;;;;;;;23.77;40.12;98827.11;106395;1273;22615;-86
2022/08/10 10:28:56;;;;;;;4.00;2.50;;;;;;;23.39;40.34;98824.31;106419;1273;22693;-85
2022/08/10 10:32:19;;;;;;;4.60;2.80;;;;;;;23.39;40.64;98820.54;106406;1273;22529;-85
2022/08/10 10:34:53;;;;;;;3.40;2.30;;;;;;;23.76;41.06;98818.92;105799;1281;22933;-85
2022/08/10 10:37:22;;;;;;;9.20;3.10;;;;;;;24.18;40.85;98818.61;105596;1282;22551;-87
2022/08/10 10:40:12;;;;;;;4.80;2.50;;;;;;;24.56;39.73;98817.61;105778;1282;22559;-86
2022/08/10 10:42:48;;;;;;;3.90;2.10;;;;;;;24.75;39.89;98815.54;105642;1282;22570;-86
2022/08/10 10:45:50;;;;;;;5.80;2.50;;;;;;;25.01;38.72;98816.39;105740;1282;25355;-86
2022/08/10 10:48:36;;;;;;;4.30;2.60;;;;;;;24.91;38.61;98813.96;105702;1282;25350;-85
2022/08/10 10:51:19;;;;;;;4.30;2.40;;;;;;;25.05;38.40;98810.94;105768;1282;23532;-87
2022/08/10 10:54:06;;;;;;;5.30;2.20;;;;;;;25.01;37.90;98815.36;105765;1282;23001;-86
2022/08/10 10:56:52;;;;;;;4.00;2.40;;;;;;;24.97;37.95;98808.60;105798;1282;22780;-86
2022/08/10 10:59:40;;;;;;;4.20;2.30;;;;;;;25.11;38.55;98803.85;105704;1282;24259;-85
2022/08/10 11:02:49;;;;;;;5.90;2.80;;;;;;;25.46;38.45;98801.63;105751;1282;24943;-87
2022/08/10 11:05:32;;;;;;;4.40;2.50;;;;;;;25.76;38.66;98799.14;105437;1282;24482;-86
2022/08/10 11:08:13;;;;;;;4.10;2.30;;;;;;;25.96;37.43;98801.10;105559;1282;22569;-85
2022/08/10 11:10:43;;;;;;;6.60;2.10;;;;;;;25.97;37.37;98798.73;105767;1282;22887;-86
2022/08/10 11:13:14;;;;;;;5.10;2.20;;;;;;;26.12;37.58;98796.52;106262;1275;24352;-85
2022/08/10 11:16:08;;;;;;;6.10;2.30;;;;;;;26.45;37.91;98798.39;106479;1274;22547;-85
2022/08/10 11:18:54;;;;;;;4.70;2.10;;;;;;;26.66;37.75;98797.54;106474;1274;25305;-85
2022/08/10 11:21:39;;;;;;;4.60;2.00;;;;;;;26.89;37.45;98794.19;106445;1274;22625;-87
2022/08/10 11:24:26;;;;;;;3.40;1.90;;;;;;;27.01;36.46;98793.02;106317;1274;25244;-86
2022/08/10 11:27:41;;;;;;;4.00;1.80;;;;;;;26.76;35.46;98791.27;106472;1274;23982;-86
2022/08/10 11:30:18;;;;;;;6.10;2.40;;;;;;;26.43;35.46;98793.15;106484;1274;22553;-86
2022/08/10 11:33:13;;;;;;;7.30;2.70;;;;;;;25.86;35.15;98793.89;106494;1274;25306;-86
2022/08/10 11:36:25;;;;;;;3.40;2.10;;;;;;;25.06;36.08;98797.23;106629;1274;23279;-86
2022/08/10 11:39:04;;;;;;;4.80;2.60;;;;;;;24.59;36.70;98797.02;106380;1273;22557;-85
2022/08/10 11:41:53;;;;;;;2.60;2.10;;;;;;;24.72;37.72;98793.67;106565;1274;23481;-86
2022/08/10 11:45:00;;;;;;;6.40;2.30;;;;;;;25.33;37.73;98788.07;106541;1274;22547;-86
2022/08/10 11:47:38;;;;;;;4.80;2.00;;;;;;;25.87;37.25;98787.66;106595;1274;22540;-86
2022/08/10 11:50:20;;;;;;;5.70;2.40;;;;;;;26.09;36.70;98789.31;106503;1274;25363;-86
2022/08/10 11:53:00;;;;;;;2.50;1.90;;;;;;;26.18;37.03;98794.12;106577;1274;23386;-84
2022/08/10 11:55:31;;;;;;;6.00;2.30;;;;;;;26.00;37.49;98787.17;107071;1273;23396;-87
2022/08/10 11:59:55;;;;;;;2.60;1.80;;;;;;;25.99;36.80;98786.23;107495;1274;22714;-85
2022/08/10 12:00:56;;;;;;;3.60;2.10;;;;;;;26.11;35.70;98779.30;107016;1274;22552;-87
2022/08/10 12:03:28;;;;;;;3.40;2.20;;;;;;;26.09;35.56;98785.13;107097;1274;22687;-85
2022/08/10 12:06:04;;;;;;;7.00;2.00;;;;;;;25.63;35.18;98787.48;107228;1274;23389;-86
2022/08/10 12:08:33;;;;;;;3.90;2.20;;;;;;;25.31;36.28;98788.84;107057;1273;22571;-85
2022/08/10 12:11:25;;;;;;;5.00;2.00;;;;;;;25.40;37.05;98783.59;107728;1273;22548;-86
2022/08/10 12:14:02;;;;;;;3.40;2.50;;;;;;;25.89;36.91;98774.83;106713;1273;24360;-87
2022/08/10 12:16:58;;;;;;;2.70;2.10;;;;;;;26.45;36.92;98771.45;107283;1275;23123;-86
2022/08/10 12:19:43;;;;;;;6.90;2.30;;;;;;;26.90;35.73;98767.82;107194;1273;22689;-87
2022/08/10 12:23:07;;;;;;;6.60;2.30;;;;;;;27.02;35.14;98770.64;106765;1273;24287;-82
2022/08/10 12:26:07;;;;;;;3.70;2.40;;;;;;;26.80;35.62;98762.80;105952;1282;24128;-82
2022/08/10 12:28:57;;;;;;;3.20;2.00;;;;;;;26.47;35.36;98762.00;105814;1282;22539;-82
2022/08/10 12:31:50;;;;;;;4.20;2.50;;;;;;;26.00;35.13;98761.84;105851;1282;24259;-81